createdAt,value
2019-04-29T00:02:26.932Z,99109.44
2019-04-29T00:04:57.885Z,99100.05
2019-04-29T00:07:28.829Z,99100.50
2019-04-29T00:09:59.258Z,99104.05
2019-04-29T00:12:31.767Z,99099.84
2019-04-29T00:15:24.154Z,99096.47
2019-04-29T00:17:59.704Z,99096.47
2019-04-29T00:20:47.230Z,99098.92
2019-04-29T00:23:20.043Z,99104.07
2019-04-29T00:25:50.785Z,99108.94
2019-04-29T00:28:21.467Z,99102.73
2019-04-29T00:30:51.720Z,99099.23
2019-04-29T00:33:22.321Z,99102.02
2019-04-29T00:35:52.677Z,99107.69
2019-04-29T00:38:42.345Z,99110.05
2019-04-29T00:41:31.645Z,99113.78
2019-04-29T00:44:04.524Z,99108.73
2019-04-29T00:46:35.178Z,99109.02
2019-04-29T00:49:05.803Z,99101.89
2019-04-29T00:51:36.685Z,99104.25
2019-04-29T00:54:17.559Z,99105.38
2019-04-29T00:56:48.287Z,99109.95
2019-04-29T00:59:19.265Z,99111.14
2019-04-29T01:01:49.592Z,99104.53
2019-04-29T01:04:20.674Z,99102.13
2019-04-29T01:06:51.760Z,99107.89
2019-04-29T01:09:24.099Z,99107.42
2019-04-29T01:11:55.048Z,99091.45
2019-04-29T01:14:25.344Z,99100.15
2019-04-29T01:16:56.007Z,99104.25
2019-04-29T01:19:26.666Z,99098.72
2019-04-29T01:21:57.350Z,99098.31
2019-04-29T01:24:27.792Z,99102.46
2019-04-29T01:27:10.223Z,99104.12
2019-04-29T01:29:40.627Z,99114.83
2019-04-29T01:32:10.872Z,99105.05
2019-04-29T01:34:55.025Z,99110.06
2019-04-29T01:37:39.771Z,99111.66
2019-04-29T01:40:41.188Z,99117.98
2019-04-29T01:43:12.539Z,99113.34
2019-04-29T01:45:43.414Z,99115.98
2019-04-29T01:48:13.717Z,99114.56
2019-04-29T01:50:45.387Z,99114.34
2019-04-29T01:53:15.922Z,99112.25
2019-04-29T01:55:46.866Z,99112.02
2019-04-29T01:58:17.166Z,99115.77
2019-04-29T02:00:47.975Z,99118.08
2019-04-29T02:03:18.154Z,99116.73
2019-04-29T02:05:48.639Z,99125.10
2019-04-29T02:08:18.906Z,99125.77
2019-04-29T02:10:49.453Z,99129.58
2019-04-29T02:13:20.365Z,99134.73
2019-04-29T02:15:50.647Z,99139.02
2019-04-29T02:19:36.992Z,99132.79
2019-04-29T02:22:23.935Z,99131.42
2019-04-29T02:24:58.099Z,99133.73
2019-04-29T02:27:29.689Z,99117.27
2019-04-29T02:30:03.058Z,99119.73
2019-04-29T02:32:34.434Z,99117.32
2019-04-29T02:35:05.175Z,99112.62
2019-04-29T02:37:38.682Z,99122.38
2019-04-29T02:40:20.350Z,99122.38
2019-04-29T02:42:58.198Z,99120.86
2019-04-29T02:45:31.890Z,99117.55
2019-04-29T02:48:02.779Z,99120.27
2019-04-29T02:50:33.426Z,99124.81
2019-04-29T02:53:03.699Z,99124.45
2019-04-29T02:55:38.224Z,99122.67
2019-04-29T02:58:39.888Z,99119.91
2019-04-29T03:01:33.706Z,99123.17
2019-04-29T03:04:14.654Z,99122.84
2019-04-29T03:06:45.160Z,99120.89
2019-04-29T03:09:15.388Z,99121.53
2019-04-29T03:11:45.918Z,99122.45
2019-04-29T03:14:16.548Z,99118.72
2019-04-29T03:16:47.209Z,99117.52
2019-04-29T03:19:32.108Z,99117.96
2019-04-29T03:22:04.462Z,99112.99
2019-04-29T03:24:35.135Z,99112.70
2019-04-29T03:27:05.687Z,99114.51
2019-04-29T03:29:35.892Z,99110.07
2019-04-29T03:32:06.161Z,99113.04
2019-04-29T03:34:36.470Z,99113.36
2019-04-29T03:37:06.720Z,99114.88
2019-04-29T03:39:37.276Z,99121.35
2019-04-29T03:42:07.993Z,99120.02
2019-04-29T03:44:38.255Z,99127.55
2019-04-29T03:47:08.441Z,99125.70
2019-04-29T03:49:39.152Z,99124.31
2019-04-29T03:52:09.698Z,99125.17
2019-04-29T03:54:39.984Z,99128.61
2019-04-29T03:57:11.741Z,99126.81
2019-04-29T03:59:43.405Z,99128.29
2019-04-29T04:02:29.498Z,99130.61
2019-04-29T04:05:25.747Z,99133.00
2019-04-29T04:08:04.662Z,99129.44
2019-04-29T04:10:34.947Z,99132.36
2019-04-29T04:13:05.645Z,99131.83
2019-04-29T04:15:36.027Z,99134.09
2019-04-29T04:18:12.375Z,99139.50
2019-04-29T04:20:42.973Z,99147.75
2019-04-29T04:23:13.172Z,99142.63
2019-04-29T04:25:43.448Z,99148.33
2019-04-29T04:28:13.743Z,99146.24
2019-04-29T04:30:43.998Z,99152.30
2019-04-29T04:33:14.588Z,99157.33
2019-04-29T04:35:44.956Z,99160.45
2019-04-29T04:38:15.823Z,99156.67
2019-04-29T04:41:10.851Z,99158.75
2019-04-29T04:43:41.388Z,99162.63
2019-04-29T04:46:11.934Z,99163.53
2019-04-29T04:48:42.280Z,99168.41
2019-04-29T04:51:12.638Z,99166.70
2019-04-29T04:53:43.197Z,99170.77
2019-04-29T04:56:13.465Z,99171.63
2019-04-29T04:58:44.206Z,99171.17
2019-04-29T05:01:14.877Z,99169.67
2019-04-29T05:03:45.850Z,99171.15
2019-04-29T05:06:16.071Z,99174.67
2019-04-29T05:08:46.998Z,99176.84
2019-04-29T05:11:17.739Z,99180.67
2019-04-29T05:13:49.182Z,99172.48
2019-04-29T05:16:19.364Z,99182.12
2019-04-29T05:18:49.993Z,99175.02
2019-04-29T05:21:20.167Z,99172.64
2019-04-29T05:23:50.884Z,99178.28
2019-04-29T05:26:21.248Z,99180.23
2019-04-29T05:28:51.896Z,99184.68
2019-04-29T05:31:22.106Z,99189.82
2019-04-29T05:33:52.774Z,99184.58
2019-04-29T05:36:34.078Z,99189.14
2019-04-29T05:39:18.265Z,99189.38
2019-04-29T05:41:50.547Z,99186.35
2019-04-29T05:44:32.290Z,99189.38
2019-04-29T05:47:18.138Z,99198.50
2019-04-29T05:50:06.699Z,99199.11
2019-04-29T05:52:49.736Z,99203.16
2019-04-29T05:55:18.589Z,99203.84
2019-04-29T05:57:49.479Z,99204.45
